Time;durP1;ratioP1;P1;durP2;ratioP2;P2;SDS_P1;SDS_P2;PMS_P1;PMS_P2;Temp;Humidity;BMP_temperature;BMP_pressure;BME280_temperature;BME280_humidity;BME280_pressure;Samples;Min_cycle;Max_cycle;Signal;HPM_P1;HPM_P2
2024/04/07 00:00:22;;;;;;;2.90;2.60;;;;;;;17.85;62.22;155949.53;5019839;28;20445;-87
2024/04/07 00:02:51;;;;;;;3.90;3.10;;;;;;;17.80;64.39;155935.22;5008771;28;20206;-87
2024/04/07 00:05:18;;;;;;;3.10;2.80;;;;;;;17.72;66.01;155915.69;5010626;28;20453;-87
2024/04/07 00:07:43;;;;;;;3.73;3.43;;;;;;;17.62;64.41;155889.66;5009800;28;20436;-88
2024/04/07 00:10:10;;;;;;;3.87;2.87;;;;;;;17.58;64.80;155879.22;5015360;28;20960;-87
2024/04/07 00:12:37;;;;;;;3.60;2.60;;;;;;;17.56;65.02;155874.03;5028765;28;20219;-88
2024/04/07 00:15:05;;;;;;;3.50;2.87;;;;;;;17.54;63.80;155868.84;5025247;28;20950;-88
2024/04/07 00:17:30;;;;;;;3.27;2.73;;;;;;;17.50;63.94;155858.38;5013489;28;20468;-88
2024/04/07 00:19:57;;;;;;;2.60;2.40;;;;;;;17.49;64.46;155857.09;5015888;28;20458;-88
2024/04/07 00:22:24;;;;;;;3.10;2.60;;;;;;;17.49;65.68;155857.09;5032231;28;20245;-88
2024/04/07 00:24:50;;;;;;;6.43;2.60;;;;;;;17.46;66.71;155849.25;5029200;28;20797;-88
2024/04/07 00:27:16;;;;;;;3.43;2.30;;;;;;;17.46;67.14;155847.94;5010633;28;20494;-88
2024/04/07 00:29:45;;;;;;;3.50;3.20;;;;;;;17.46;68.23;155847.94;5027204;28;20986;-87
2024/04/07 00:32:10;;;;;;;2.90;2.67;;;;;;;17.41;67.49;155834.94;5028918;28;20601;-87
2024/04/07 00:34:37;;;;;;;3.00;2.70;;;;;;;17.36;68.41;155823.25;5022216;28;20521;-88
2024/04/07 00:37:12;;;;;;;3.20;2.73;;;;;;;17.39;65.93;155831.06;5009636;28;20219;-87
2024/04/07 00:39:38;;;;;;;3.10;2.50;;;;;;;17.36;64.75;155823.25;5007778;28;20951;-88
2024/04/07 00:42:04;;;;;;;4.40;3.03;;;;;;;17.41;66.16;155834.94;5008874;28;20206;-88
2024/04/07 00:44:31;;;;;;;3.30;2.77;;;;;;;17.39;66.11;155831.06;5015851;28;20464;-88
2024/04/07 00:46:58;;;;;;;3.27;2.40;;;;;;;17.38;66.13;155827.13;5027390;28;20439;-88
2024/04/07 00:49:24;;;;;;;3.27;2.70;;;;;;;17.36;65.04;155823.25;5028460;28;20438;-88
2024/04/07 00:51:50;;;;;;;3.20;2.90;;;;;;;17.34;64.46;155816.72;5027223;28;20525;-89
2024/04/07 00:54:17;;;;;;;3.20;2.67;;;;;;;17.33;63.39;155814.13;5017981;28;20535;-88
2024/04/07 00:56:42;;;;;;;3.37;3.07;;;;;;;17.27;61.47;155799.78;5009056;28;20652;-89
2024/04/07 00:59:09;;;;;;;3.57;2.80;;;;;;;17.27;63.20;155798.47;5008549;28;20511;-88
2024/04/07 01:01:34;;;;;;;3.00;2.70;;;;;;;17.30;66.95;155806.28;5016788;28;20210;-89
2024/04/07 01:04:03;;;;;;;2.80;2.57;;;;;;;17.25;66.20;155793.28;5010405;28;20446;-88
2024/04/07 01:06:28;;;;;;;3.47;3.07;;;;;;;17.25;64.50;155794.59;5028286;28;20603;-89
2024/04/07 01:08:57;;;;;;;3.13;2.40;;;;;;;17.24;67.50;155790.66;5011075;28;20448;-89
2024/04/07 01:11:25;;;;;;;2.67;2.47;;;;;;;17.20;66.65;155780.28;5023536;28;20440;-88
2024/04/07 01:13:52;;;;;;;2.80;2.47;;;;;;;17.19;64.54;155777.66;5021651;28;20462;-88
2024/04/07 01:16:17;;;;;;;2.40;2.20;;;;;;;17.19;68.33;155778.97;4994064;28;20533;-88
2024/04/07 01:18:44;;;;;;;2.67;2.47;;;;;;;17.12;65.53;155760.78;5010306;28;20451;-88
2024/04/07 01:21:11;;;;;;;4.00;2.40;;;;;;;17.11;68.00;155756.84;5009870;28;20755;-89
2024/04/07 01:23:39;;;;;;;3.13;2.80;;;;;;;17.07;69.69;155746.44;5010045;28;20497;-87
2024/04/07 01:26:04;;;;;;;3.10;2.80;;;;;;;16.97;67.28;155723.00;5010350;28;20502;-88
2024/04/07 01:28:31;;;;;;;3.07;2.40;;;;;;;16.95;67.11;155717.81;5021196;28;20464;-88
2024/04/07 01:30:57;;;;;;;3.03;2.47;;;;;;;16.92;67.83;155708.69;5016967;28;20296;-89
2024/04/07 01:33:23;;;;;;;4.10;2.83;;;;;;;16.85;65.88;155691.81;5028185;28;20896;-88
2024/04/07 01:35:49;;;;;;;3.83;2.80;;;;;;;16.85;68.41;155691.81;5027462;28;20202;-88
2024/04/07 01:38:16;;;;;;;3.80;3.37;;;;;;;16.84;69.54;155689.19;5026932;28;20470;-88
2024/04/07 01:40:44;;;;;;;2.80;2.50;;;;;;;16.83;69.00;155686.59;5028291;28;20674;-89
2024/04/07 01:43:10;;;;;;;4.07;3.43;;;;;;;16.83;68.18;155686.59;5027605;28;20463;-88
2024/04/07 01:45:36;;;;;;;5.57;2.83;;;;;;;16.83;68.96;155686.59;5025783;28;20428;-89
2024/04/07 01:48:02;;;;;;;3.63;3.20;;;;;;;16.79;65.01;155676.19;5015059;28;20910;-88
2024/04/07 01:50:28;;;;;;;3.27;2.97;;;;;;;16.79;67.07;155676.19;5027903;28;20697;-88
2024/04/07 01:52:55;;;;;;;2.97;2.70;;;;;;;16.78;64.99;155672.28;5027027;28;20497;-88
2024/04/07 01:55:21;;;;;;;3.40;2.47;;;;;;;16.76;64.85;155668.38;5029160;28;20202;-88
2024/04/07 01:57:48;;;;;;;4.47;2.67;;;;;;;16.77;67.26;155669.66;5033650;28;20498;-88
2024/04/07 02:00:14;;;;;;;2.80;2.37;;;;;;;16.74;65.59;155663.16;5029082;28;20203;-88
2024/04/07 02:02:40;;;;;;;2.60;2.40;;;;;;;16.75;67.01;155664.47;5026722;28;20510;-88
2024/04/07 02:05:06;;;;;;;3.10;2.00;;;;;;;16.71;66.32;155655.34;5008932;28;20555;-88
2024/04/07 02:07:33;;;;;;;3.30;2.40;;;;;;;16.73;67.79;155659.28;5006813;28;20544;-88
2024/04/07 02:09:59;;;;;;;2.80;2.40;;;;;;;16.72;66.40;155657.97;5008189;28;20237;-89
2024/04/07 02:12:25;;;;;;;2.50;2.30;;;;;;;16.70;61.68;155651.47;5007489;28;20924;-89
2024/04/07 02:14:52;;;;;;;3.90;2.87;;;;;;;16.73;64.43;155660.53;5026878;28;20214;-88
2024/04/07 02:17:19;;;;;;;2.23;2.00;;;;;;;16.73;65.91;155660.53;4993408;28;20474;-89
2024/04/07 02:19:46;;;;;;;2.20;2.00;;;;;;;16.73;63.69;155660.53;5009560;28;20876;-89
2024/04/07 02:22:12;;;;;;;2.63;2.27;;;;;;;16.74;66.43;155663.16;5027408;28;20442;-89
2024/04/07 02:24:38;;;;;;;2.63;2.27;;;;;;;16.71;65.45;155655.34;5023548;28;20761;-87
2024/04/07 02:27:05;;;;;;;2.47;2.17;;;;;;;16.72;64.59;155656.66;5009736;28;20440;-89
2024/04/07 02:29:32;;;;;;;2.17;1.97;;;;;;;16.72;62.96;155656.66;5027087;28;20786;-89
2024/04/07 02:32:01;;;;;;;3.17;2.27;;;;;;;16.76;66.98;155668.38;5027072;28;20451;-89
2024/04/07 02:34:26;;;;;;;2.40;2.20;;;;;;;16.71;64.78;155655.34;5027703;28;20451;-88
2024/04/07 02:36:53;;;;;;;3.40;2.17;;;;;;;16.73;66.47;155659.28;5009665;28;20490;-88
2024/04/07 02:39:19;;;;;;;2.63;1.80;;;;;;;16.69;64.04;155650.16;5026288;28;20210;-88
2024/04/07 02:41:46;;;;;;;2.13;1.60;;;;;;;16.68;64.59;155647.53;5030359;28;20761;-89
2024/04/07 02:44:11;;;;;;;2.40;2.00;;;;;;;16.68;65.75;155647.53;5021356;28;20600;-88
2024/04/07 02:49:23;;;;;;;2.30;2.10;;;;;;;16.70;64.27;155651.47;5015452;28;20210;-88
2024/04/07 02:51:50;;;;;;;2.43;1.90;;;;;;;16.69;62.86;155650.16;5029771;28;20483;-88
2024/04/07 02:54:16;;;;;;;2.93;2.07;;;;;;;16.70;64.02;155652.78;5030897;28;20445;-88
2024/04/07 02:56:43;;;;;;;3.63;2.43;;;;;;;16.68;66.20;155647.53;5031052;28;20444;-88
2024/04/07 02:59:08;;;;;;;2.07;1.80;;;;;;;16.62;63.25;155630.66;5030921;28;20447;-88
2024/04/07 03:01:35;;;;;;;2.20;1.83;;;;;;;16.62;65.09;155631.97;5023592;28;20447;-88
2024/04/07 03:04:00;;;;;;;2.20;1.70;;;;;;;16.56;64.11;155616.34;5029309;28;20422;-88
2024/04/07 03:06:28;;;;;;;2.67;2.10;;;;;;;16.56;65.43;155616.34;5030877;28;20432;-88
2024/04/07 03:08:57;;;;;;;3.30;2.00;;;;;;;16.50;61.61;155599.38;5030314;28;20203;-88
2024/04/07 03:11:24;;;;;;;2.50;2.07;;;;;;;16.51;62.53;155601.97;5030538;28;20442;-88
2024/04/07 03:13:49;;;;;;;2.60;2.03;;;;;;;16.57;67.13;155618.97;5032107;28;20462;-89
2024/04/07 03:16:16;;;;;;;3.37;2.10;;;;;;;16.51;67.31;155603.28;5015146;28;20935;-88
2024/04/07 03:18:41;;;;;;;2.53;2.00;;;;;;;16.49;68.39;155598.09;5030672;28;20238;-88
2024/04/07 03:21:10;;;;;;;2.80;2.50;;;;;;;16.42;66.10;155579.88;5017145;28;20872;-88
2024/04/07 03:23:37;;;;;;;4.30;2.37;;;;;;;16.39;67.96;155573.34;5030772;28;20222;-88
2024/04/07 03:26:04;;;;;;;2.47;1.77;;;;;;;16.37;68.14;155568.16;5029842;28;20807;-89
2024/04/07 03:28:30;;;;;;;3.20;2.20;;;;;;;16.36;68.29;155564.28;5030713;28;20427;-88
2024/04/07 03:30:57;;;;;;;3.27;2.20;;;;;;;16.31;67.68;155551.25;5012639;28;20564;-89
2024/04/07 03:33:22;;;;;;;2.90;2.40;;;;;;;16.25;66.94;155535.66;5029204;28;20444;-88
2024/04/07 03:35:49;;;;;;;2.43;2.23;;;;;;;16.23;68.30;155530.47;5017062;28;20467;-89
2024/04/07 03:38:15;;;;;;;4.33;2.37;;;;;;;16.16;66.27;155513.53;5033903;28;20227;-88
2024/04/07 03:40:42;;;;;;;3.10;2.17;;;;;;;16.16;67.82;155513.53;5024468;28;20501;-88
2024/04/07 03:43:09;;;;;;;3.30;2.20;;;;;;;16.10;65.79;155497.94;5024037;28;20479;-89
2024/04/07 03:45:36;;;;;;;5.30;2.30;;;;;;;16.12;66.61;155503.16;5030301;28;20440;-88
2024/04/07 03:48:03;;;;;;;2.47;2.27;;;;;;;16.10;65.22;155496.63;5030143;28;20431;-89
2024/04/07 03:50:29;;;;;;;2.50;2.30;;;;;;;16.13;68.17;155504.44;5028645;28;20431;-88
2024/04/07 03:52:55;;;;;;;2.57;1.90;;;;;;;16.13;68.24;155504.44;5030347;28;20838;-88
2024/04/07 03:55:21;;;;;;;2.30;1.90;;;;;;;16.16;67.47;155513.53;5030417;28;20498;-88
2024/04/07 03:57:48;;;;;;;1.90;1.70;;;;;;;16.23;70.01;155531.75;5009968;28;20218;-88
2024/04/07 04:00:15;;;;;;;2.57;1.77;;;;;;;16.29;72.08;155546.06;5012352;28;20895;-89
2024/04/07 04:02:45;;;;;;;3.47;2.00;;;;;;;16.32;72.13;155555.16;5024086;28;20454;-88
2024/04/07 04:05:11;;;;;;;2.67;1.70;;;;;;;16.35;71.80;155561.66;5027052;28;20468;-89
2024/04/07 04:07:37;;;;;;;2.00;1.57;;;;;;;16.37;69.68;155568.16;5013956;28;20519;-88
2024/04/07 04:10:03;;;;;;;3.13;1.60;;;;;;;16.46;71.11;155590.28;5030886;28;20462;-88
2024/04/07 04:12:33;;;;;;;2.13;1.70;;;;;;;16.46;71.85;155590.28;5029436;28;20431;-88
2024/04/07 04:15:01;;;;;;;1.77;1.53;;;;;;;16.46;70.80;155590.28;5012872;28;20448;-89
2024/04/07 04:17:26;;;;;;;2.17;1.47;;;;;;;16.49;69.16;155596.78;5029421;28;20479;-89
2024/04/07 04:19:53;;;;;;;2.90;2.10;;;;;;;16.53;70.31;155608.53;5009105;28;20607;-88
2024/04/07 04:22:18;;;;;;;2.00;1.70;;;;;;;16.54;71.45;155611.16;5011125;28;20219;-88
2024/04/07 04:24:45;;;;;;;2.37;1.97;;;;;;;16.57;75.48;155618.97;5024871;28;20537;-88
2024/04/07 04:27:11;;;;;;;2.40;2.00;;;;;;;16.51;71.79;155603.28;4995010;28;20207;-88
2024/04/07 04:29:38;;;;;;;3.33;1.90;;;;;;;16.51;71.48;155601.97;5010907;28;20913;-89
2024/04/07 04:32:05;;;;;;;2.40;1.90;;;;;;;16.50;69.99;155600.66;5010765;28;20499;-89
2024/04/07 04:34:32;;;;;;;2.60;1.80;;;;;;;16.56;71.33;155615.03;5013402;28;20449;-88
2024/04/07 04:36:58;;;;;;;2.50;2.00;;;;;;;16.57;70.51;155618.97;5012347;28;20458;-88
2024/04/07 04:39:26;;;;;;;2.20;2.00;;;;;;;16.59;72.47;155624.16;5012558;28;20560;-88
2024/04/07 04:41:51;;;;;;;1.90;1.70;;;;;;;16.56;70.52;155616.34;5012613;28;20805;-88
2024/04/07 04:44:18;;;;;;;2.47;2.00;;;;;;;16.60;73.41;155626.72;5016845;28;20464;-88
2024/04/07 04:46:45;;;;;;;2.90;1.90;;;;;;;16.57;72.34;155618.97;5030219;28;20253;-87
2024/04/07 04:49:13;;;;;;;2.17;1.60;;;;;;;16.56;71.58;155616.34;5029204;28;20525;-88
2024/04/07 04:51:38;;;;;;;3.17;2.00;;;;;;;16.56;71.86;155616.34;5028711;28;20498;-88
2024/04/07 04:54:05;;;;;;;2.30;1.90;;;;;;;16.53;72.44;155608.53;5029722;28;20545;-88
2024/04/07 04:56:33;;;;;;;2.83;2.47;;;;;;;16.54;74.56;155609.84;5030316;28;20203;-88
2024/04/07 04:59:00;;;;;;;2.80;2.00;;;;;;;16.53;74.29;155608.53;5030376;28;20557;-88
2024/04/07 05:01:27;;;;;;;2.50;2.10;;;;;;;16.49;73.59;155596.78;5028743;28;21061;-88
2024/04/07 05:03:53;;;;;;;2.00;1.60;;;;;;;16.49;72.28;155598.09;5022348;28;20456;-88
2024/04/07 05:06:20;;;;;;;2.40;1.90;;;;;;;16.51;74.77;155603.28;5026631;28;20464;-88
2024/04/07 05:08:47;;;;;;;2.67;2.30;;;;;;;16.50;74.72;155599.38;5026097;28;20456;-88
2024/04/07 05:11:14;;;;;;;2.20;1.87;;;;;;;16.49;75.07;155596.78;5008528;28;20455;-88
2024/04/07 05:13:40;;;;;;;4.20;2.20;;;;;;;16.45;73.27;155588.97;5028459;28;20890;-89
2024/04/07 05:16:06;;;;;;;3.13;1.87;;;;;;;16.46;74.55;155590.28;5033242;28;20970;-88
2024/04/07 05:18:33;;;;;;;2.40;1.80;;;;;;;16.43;74.73;155582.47;5026234;28;20542;-88
2024/04/07 05:21:01;;;;;;;2.20;1.47;;;;;;;16.42;75.07;155579.88;5026600;28;20299;-88
2024/04/07 05:23:29;;;;;;;2.70;1.70;;;;;;;16.38;73.04;155569.47;5026451;28;20516;-88
2024/04/07 05:25:55;;;;;;;2.90;2.00;;;;;;;16.39;74.71;155573.34;5007824;28;20470;-89
2024/04/07 05:28:21;;;;;;;3.87;2.00;;;;;;;16.35;74.23;155561.66;5026918;28;20455;-88
2024/04/07 05:30:47;;;;;;;3.10;2.17;;;;;;;16.39;72.33;155573.34;5026669;28;20611;-89
2024/04/07 05:33:13;;;;;;;5.87;2.20;;;;;;;16.46;70.16;155590.28;5026622;28;20467;-89
2024/04/07 05:35:39;;;;;;;1.90;1.70;;;;;;;16.51;71.06;155601.97;5026330;28;20218;-89
2024/04/07 05:38:05;;;;;;;2.40;1.83;;;;;;;16.52;72.90;155605.88;5007813;28;20471;-89
2024/04/07 05:40:32;;;;;;;2.50;2.10;;;;;;;16.49;75.00;155598.09;5025498;28;20761;-88
2024/04/07 05:42:59;;;;;;;3.33;1.93;;;;;;;16.43;73.96;155582.47;5026012;28;20564;-89
2024/04/07 05:45:24;;;;;;;2.93;1.73;;;;;;;16.45;73.23;155587.66;5026272;28;20529;-88
2024/04/07 05:47:52;;;;;;;2.60;1.70;;;;;;;16.49;74.27;155598.09;5024509;28;20835;-89
2024/04/07 05:50:18;;;;;;;3.77;1.77;;;;;;;16.45;70.21;155587.66;5026878;28;20214;-89
2024/04/07 05:52:45;;;;;;;2.37;1.60;;;;;;;16.50;70.31;155599.38;5009107;28;20475;-89
2024/04/07 05:55:11;;;;;;;2.70;1.60;;;;;;;16.57;71.96;155617.66;5026841;28;20210;-89
2024/04/07 05:57:40;;;;;;;4.87;2.03;;;;;;;16.55;70.56;155612.47;5007724;28;20486;-89
2024/04/07 06:00:08;;;;;;;2.80;2.30;;;;;;;16.59;71.91;155622.84;5026182;28;20214;-89
2024/04/07 06:02:38;;;;;;;2.87;2.03;;;;;;;16.57;72.74;155618.97;5023727;28;20502;-89
2024/04/07 06:05:05;;;;;;;2.10;1.90;;;;;;;16.60;72.64;155626.72;5023565;28;20459;-89
2024/04/07 06:07:32;;;;;;;3.00;1.83;;;;;;;16.57;69.70;155618.97;5024883;28;20447;-88
2024/04/07 06:09:57;;;;;;;5.70;2.30;;;;;;;16.64;68.79;155635.84;5026916;28;20451;-88
2024/04/07 06:12:24;;;;;;;2.87;1.77;;;;;;;16.72;70.86;155657.97;5026589;28;21044;-89
2024/04/07 06:14:50;;;;;;;2.60;2.00;;;;;;;16.74;69.96;155663.16;5028648;28;20727;-88
2024/04/07 06:17:17;;;;;;;2.93;1.57;;;;;;;16.78;69.61;155673.59;5030961;28;20454;-89
2024/04/07 06:19:43;;;;;;;2.63;1.60;;;;;;;16.87;73.42;155695.69;5011893;28;20970;-88
2024/04/07 06:22:09;;;;;;;5.80;2.20;;;;;;;16.87;70.37;155697.00;5029648;28;20460;-88
2024/04/07 06:24:35;;;;;;;2.20;1.80;;;;;;;16.97;70.19;155721.75;5030254;28;20742;-89
2024/04/07 06:27:02;;;;;;;1.90;1.70;;;;;;;17.05;72.50;155742.53;5030091;28;20538;-89
2024/04/07 06:29:31;;;;;;;2.97;1.97;;;;;;;17.10;71.48;155754.25;5028607;28;20226;-89
2024/04/07 06:31:59;;;;;;;2.33;2.10;;;;;;;17.24;70.73;155791.97;5010273;28;21092;-87
2024/04/07 06:34:25;;;;;;;3.57;2.33;;;;;;;17.31;74.82;155808.91;5029476;28;20558;-88
2024/04/07 06:36:51;;;;;;;2.67;2.00;;;;;;;17.30;71.70;155806.28;5009862;28;20543;-88
2024/04/07 06:39:17;;;;;;;3.00;2.00;;;;;;;17.38;69.59;155827.13;5010075;28;20292;-88
2024/04/07 06:41:43;;;;;;;3.67;2.00;;;;;;;17.52;69.57;155864.91;5028624;28;20447;-88
2024/04/07 06:44:09;;;;;;;5.07;1.83;;;;;;;17.59;70.05;155881.84;5009849;28;20214;-88
2024/04/07 06:46:35;;;;;;;2.80;1.90;;;;;;;17.62;67.01;155890.97;5028805;28;20459;-88
2024/04/07 06:49:02;;;;;;;4.40;1.80;;;;;;;17.75;62.73;155923.50;5028674;28;20605;-88
2024/04/07 06:51:31;;;;;;;2.70;1.57;;;;;;;17.97;51.81;155980.81;5029166;28;20821;-89
2024/04/07 06:53:57;;;;;;;3.57;1.60;;;;;;;18.32;51.08;156070.63;5011710;28;20463;-88
2024/04/07 06:56:35;;;;;;;3.20;2.10;;;;;;;18.47;56.31;156108.44;5032588;28;20452;-89
2024/04/07 06:59:00;;;;;;;4.27;1.97;;;;;;;18.39;57.79;156087.59;5026306;28;20758;-89
2024/04/07 07:01:28;;;;;;;2.77;1.83;;;;;;;18.39;54.11;156087.59;5027027;28;20501;-89
2024/04/07 07:03:54;;;;;;;4.07;1.90;;;;;;;18.44;54.04;156100.59;5025078;28;20570;-88
2024/04/07 07:06:22;;;;;;;3.30;1.90;;;;;;;18.54;56.39;156126.69;5009612;28;20452;-88
2024/04/07 07:08:47;;;;;;;4.37;2.40;;;;;;;18.52;54.18;156121.50;5009730;28;20603;-88
2024/04/07 07:11:14;;;;;;;3.70;2.33;;;;;;;18.62;53.06;156147.53;5028541;28;20451;-89
2024/04/07 07:13:42;;;;;;;4.63;2.70;;;;;;;18.70;52.00;156169.69;5028170;28;20211;-89
2024/04/07 07:16:09;;;;;;;3.73;2.10;;;;;;;18.81;52.36;156197.06;5027372;28;20452;-89
2024/04/07 07:18:35;;;;;;;3.00;2.00;;;;;;;18.90;51.81;156220.53;5028414;28;20487;-88
2024/04/07 07:21:02;;;;;;;4.63;2.93;;;;;;;19.00;50.96;156245.28;5027013;28;20976;-88
2024/04/07 07:23:30;;;;;;;6.93;2.00;;;;;;;19.07;49.97;156263.50;5026390;28;20210;-89
2024/04/07 07:25:56;;;;;;;4.37;2.30;;;;;;;19.14;49.87;156283.03;5027140;28;20452;-89
2024/04/07 07:28:23;;;;;;;5.37;2.17;;;;;;;19.21;49.17;156300.00;5010756;28;20460;-89
2024/04/07 07:30:49;;;;;;;9.13;2.50;;;;;;;19.27;50.92;156316.91;4967750;28;1231057;-89
2024/04/07 07:33:15;;;;;;;3.50;1.97;;;;;;;19.31;51.49;156327.38;5029702;28;20211;-88
2024/04/07 07:35:42;;;;;;;3.07;1.80;;;;;;;19.30;50.32;156323.47;5029359;28;20809;-89
2024/04/07 07:38:08;;;;;;;4.20;2.10;;;;;;;19.32;49.93;156330.00;5029741;28;20240;-89
2024/04/07 07:40:36;;;;;;;6.60;2.80;;;;;;;19.35;50.38;156336.50;4993367;28;20835;-89
2024/04/07 07:43:03;;;;;;;4.67;2.70;;;;;;;19.39;53.24;156348.28;5029807;28;20564;-89
2024/04/07 07:45:30;;;;;;;5.63;2.80;;;;;;;19.35;52.88;156337.78;5029008;28;20528;-89
2024/04/07 07:47:55;;;;;;;7.47;3.03;;;;;;;19.36;53.06;156339.09;5029034;28;20983;-88
2024/04/07 07:50:22;;;;;;;7.30;2.23;;;;;;;19.42;52.43;156354.78;5029235;28;20881;-89
2024/04/07 07:52:48;;;;;;;4.83;2.30;;;;;;;19.53;51.79;156382.16;5028781;28;20273;-89
2024/04/07 07:55:14;;;;;;;4.37;1.97;;;;;;;19.69;50.52;156423.88;5009969;28;20850;-89
2024/04/07 07:57:41;;;;;;;3.47;2.60;;;;;;;20.06;51.73;156520.38;5029083;28;20268;-90
2024/04/07 08:00:11;;;;;;;4.40;2.80;;;;;;;20.51;51.88;156637.81;5008760;28;20485;-89
2024/04/07 08:02:36;;;;;;;8.70;2.87;;;;;;;20.81;52.28;156713.47;5010214;28;20590;-88
2024/04/07 08:05:04;;;;;;;2.70;2.27;;;;;;;20.98;49.73;156759.13;5008961;28;20462;-88
2024/04/07 08:07:29;;;;;;;4.50;2.50;;;;;;;21.14;49.04;156799.63;5027581;28;20330;-88
2024/04/07 08:09:56;;;;;;;3.07;1.90;;;;;;;21.17;48.69;156807.47;5027755;28;20551;-88
2024/04/07 08:12:21;;;;;;;5.47;2.30;;;;;;;21.20;47.49;156815.31;5028666;28;20210;-89
2024/04/07 08:14:49;;;;;;;7.40;2.80;;;;;;;21.33;47.18;156849.25;5008930;28;20478;-88
2024/04/07 08:17:16;;;;;;;6.77;3.43;;;;;;;21.36;47.37;156857.09;5025283;28;20280;-89
2024/04/07 08:19:42;;;;;;;3.20;2.00;;;;;;;21.39;45.46;156864.91;5028486;28;20518;-89
2024/04/07 08:22:09;;;;;;;3.17;1.90;;;;;;;21.40;51.84;156867.50;5027356;28;20455;-88
2024/04/07 08:24:36;;;;;;;6.57;1.97;;;;;;;21.19;45.34;156812.69;5026922;28;20756;-89
2024/04/07 08:27:02;;;;;;;5.43;2.23;;;;;;;21.23;43.63;156824.41;5009190;28;20542;-89
2024/04/07 08:29:29;;;;;;;5.10;2.20;;;;;;;21.26;44.96;156829.66;5027984;28;20495;-88
2024/04/07 08:31:57;;;;;;;3.87;2.20;;;;;;;21.30;49.46;156840.09;5027270;28;20443;-89
2024/04/07 08:34:23;;;;;;;3.60;2.03;;;;;;;21.22;44.71;156821.84;5032707;28;20533;-88
2024/04/07 08:36:49;;;;;;;6.23;2.40;;;;;;;21.18;44.98;156810.09;5028037;28;20955;-88
2024/04/07 08:39:15;;;;;;;4.90;2.30;;;;;;;21.17;52.46;156807.47;5008433;28;20574;-88
2024/04/07 08:41:41;;;;;;;11.50;2.10;;;;;;;21.14;45.51;156799.63;5025500;28;20828;-89
2024/04/07 08:44:07;;;;;;;4.83;1.83;;;;;;;21.22;44.75;156821.84;5027161;28;20222;-89
2024/04/07 08:46:36;;;;;;;9.00;1.83;;;;;;;21.29;45.63;156838.78;5026614;28;21048;-88
2024/04/07 08:49:04;;;;;;;6.00;1.93;;;;;;;21.32;45.67;156845.31;5027093;28;20471;-89
2024/04/07 08:51:30;;;;;;;3.90;2.27;;;;;;;21.37;46.09;156859.66;5026873;28;20447;-88
2024/04/07 08:53:58;;;;;;;3.50;2.00;;;;;;;21.45;47.67;156880.53;5026419;28;20447;-89
2024/04/07 08:56:24;;;;;;;3.83;2.40;;;;;;;21.47;47.25;156885.75;5023852;28;20482;-89
2024/04/07 08:58:51;;;;;;;6.00;2.70;;;;;;;21.51;46.75;156896.22;5026576;28;20889;-89
2024/04/07 09:01:20;;;;;;;8.47;3.10;;;;;;;21.51;48.43;156894.91;5026295;28;20543;-88
2024/04/07 09:03:47;;;;;;;6.60;3.60;;;;;;;21.26;49.75;156830.94;5024769;28;20451;-89
2024/04/07 09:06:15;;;;;;;4.50;3.47;;;;;;;20.96;50.02;156752.63;5025187;28;20455;-89
2024/04/07 09:08:42;;;;;;;4.17;2.80;;;;;;;20.81;51.25;156714.75;5023479;28;20456;-89
2024/04/07 09:11:09;;;;;;;6.80;3.20;;;;;;;20.73;52.13;156692.63;5008887;28;20791;-89
2024/04/07 09:13:36;;;;;;;6.57;2.97;;;;;;;20.79;52.40;156708.22;5026586;28;20897;-89
2024/04/07 09:16:03;;;;;;;4.93;2.90;;;;;;;20.84;52.26;156722.59;5027258;28;20452;-89
2024/04/07 09:18:29;;;;;;;3.93;2.70;;;;;;;20.95;52.89;156751.31;5008716;28;20483;-88
2024/04/07 09:20:56;;;;;;;4.60;2.90;;;;;;;20.96;51.66;156753.94;5008229;28;20460;-89
2024/04/07 09:23:23;;;;;;;2.73;1.90;;;;;;;20.96;51.70;156752.63;5026670;28;20205;-88
2024/04/07 09:25:51;;;;;;;2.70;1.93;;;;;;;21.01;54.46;156765.66;5024776;28;20465;-89
2024/04/07 09:28:16;;;;;;;7.50;2.70;;;;;;;21.08;52.46;156783.97;5027279;28;20454;-89
2024/04/07 09:30:43;;;;;;;5.10;1.93;;;;;;;21.19;55.97;156812.69;5025918;28;20479;-89
2024/04/07 09:33:09;;;;;;;4.73;2.60;;;;;;;21.24;55.23;156827.03;5026978;28;20256;-88
2024/04/07 09:35:35;;;;;;;3.27;2.30;;;;;;;21.28;52.04;156834.88;5026165;28;20460;-88
2024/04/07 09:38:01;;;;;;;4.60;2.00;;;;;;;21.35;53.23;156854.44;5008290;28;20210;-88
2024/04/07 09:40:29;;;;;;;4.50;2.30;;;;;;;21.39;55.56;156864.91;5008244;28;21064;-88
2024/04/07 09:42:58;;;;;;;4.30;1.70;;;;;;;21.36;54.25;156857.09;5007958;28;20301;-88
2024/04/07 09:45:26;;;;;;;4.80;2.10;;;;;;;21.39;54.92;156864.91;5007018;28;20529;-88
2024/04/07 09:47:57;;;;;;;5.17;2.27;;;;;;;21.34;51.18;156851.81;5025949;28;20845;-89
2024/04/07 09:50:28;;;;;;;3.50;1.80;;;;;;;21.35;48.77;156854.44;5006017;28;20459;-89
2024/04/07 09:52:58;;;;;;;3.47;2.10;;;;;;;21.32;50.28;156846.63;5026489;28;20466;-89
2024/04/07 09:55:25;;;;;;;4.60;1.83;;;;;;;21.33;52.87;156849.25;5025090;28;20452;-88
2024/04/07 09:57:52;;;;;;;6.93;1.97;;;;;;;21.44;57.21;156876.66;5025845;28;20965;-88
2024/04/07 10:00:20;;;;;;;5.20;2.33;;;;;;;21.44;55.45;156877.97;5026342;28;20476;-89
2024/04/07 10:02:45;;;;;;;3.90;1.80;;;;;;;21.46;52.45;156883.19;5024629;28;20459;-88
2024/04/07 10:05:12;;;;;;;4.67;1.77;;;;;;;21.57;51.34;156911.91;5006384;28;20844;-88
2024/04/07 10:07:38;;;;;;;5.03;2.00;;;;;;;21.69;48.74;156943.22;5025927;28;20233;-89
2024/04/07 10:10:08;;;;;;;5.20;2.20;;;;;;;21.76;49.18;156960.22;5026038;28;20452;-89
2024/04/07 10:12:33;;;;;;;6.53;2.10;;;;;;;21.81;46.29;156974.56;5028168;28;20207;-89
2024/04/07 10:15:01;;;;;;;6.33;2.00;;;;;;;21.83;46.78;156979.78;5011725;28;20463;-89
2024/04/07 10:17:30;;;;;;;6.37;2.50;;;;;;;21.94;48.75;157007.25;5026117;28;20218;-89
2024/04/07 10:19:58;;;;;;;3.40;1.90;;;;;;;22.00;50.22;157021.63;5025400;28;20836;-89
2024/04/07 10:22:24;;;;;;;4.60;1.70;;;;;;;22.01;46.64;157024.22;5007789;28;20460;-89
2024/04/07 10:24:52;;;;;;;5.53;2.40;;;;;;;22.05;50.88;157036.00;5007935;28;20455;-89
2024/04/07 10:27:22;;;;;;;3.30;1.93;;;;;;;22.03;46.85;157029.47;5007728;28;20451;-88
2024/04/07 10:29:52;;;;;;;4.40;2.00;;;;;;;22.15;45.69;157060.78;5024010;28;20498;-89
2024/04/07 10:32:25;;;;;;;4.50;2.00;;;;;;;22.17;47.11;157067.31;5026200;28;20962;-88
2024/04/07 10:35:02;;;;;;;5.90;2.20;;;;;;;22.14;46.65;157058.16;5022386;28;20922;-89
2024/04/07 10:37:30;;;;;;;5.50;1.77;;;;;;;22.14;46.42;157059.47;5023375;28;20440;-89
2024/04/07 10:39:57;;;;;;;3.97;2.20;;;;;;;22.14;46.07;157059.47;5026271;28;20497;-88
2024/04/07 10:42:22;;;;;;;5.00;2.10;;;;;;;22.18;46.55;157068.63;5026233;28;20462;-88
2024/04/07 10:44:49;;;;;;;4.73;1.90;;;;;;;22.21;46.96;157077.75;5026011;28;20459;-88
2024/04/07 10:47:15;;;;;;;2.90;1.53;;;;;;;22.24;50.04;157084.31;5007135;28;20277;-88
2024/04/07 10:49:44;;;;;;;4.23;2.20;;;;;;;22.17;49.89;157067.31;5026915;28;20463;-89
2024/04/07 10:52:14;;;;;;;8.10;1.90;;;;;;;22.11;47.79;157051.63;5008047;28;20317;-89
2024/04/07 10:54:40;;;;;;;3.97;1.90;;;;;;;22.11;46.75;157050.31;5020510;28;20447;-88
2024/04/07 10:57:10;;;;;;;5.63;2.20;;;;;;;21.96;47.15;157011.16;5025974;28;20456;-89
2024/04/07 10:59:37;;;;;;;4.23;2.03;;;;;;;21.96;47.23;157011.16;5025109;28;20531;-88
2024/04/07 11:02:02;;;;;;;3.60;2.10;;;;;;;22.01;48.11;157024.22;5028760;28;20501;-89
2024/04/07 11:04:29;;;;;;;4.20;2.00;;;;;;;22.09;50.77;157045.09;5027994;28;20934;-89
2024/04/07 11:06:56;;;;;;;4.40;1.97;;;;;;;22.06;48.60;157038.56;5010331;28;20317;-89
2024/04/07 11:09:23;;;;;;;4.93;1.87;;;;;;;22.15;48.69;157062.09;5029510;28;20470;-88
2024/04/07 11:11:53;;;;;;;5.90;2.27;;;;;;;22.23;48.05;157081.69;5030087;28;20904;-89
2024/04/07 11:14:19;;;;;;;5.73;2.23;;;;;;;22.28;47.62;157094.75;5026970;28;20459;-88
2024/04/07 11:16:45;;;;;;;5.13;2.90;;;;;;;22.39;47.05;157123.47;5028967;28;20538;-88
2024/04/07 11:19:17;;;;;;;8.27;2.20;;;;;;;22.54;47.41;157161.34;5029565;28;20521;-88
2024/04/07 11:21:43;;;;;;;7.20;2.50;;;;;;;22.52;46.09;157157.44;5028521;28;20207;-88
2024/04/07 11:24:10;;;;;;;7.13;1.93;;;;;;;22.58;46.38;157173.13;5011355;28;20471;-89